Time;durP1;ratioP1;P1;durP2;ratioP2;P2;SDS_P1;SDS_P2;PMS_P1;PMS_P2;Temp;Humidity;BMP_temperature;BMP_pressure;BME280_temperature;BME280_humidity;BME280_pressure;Samples;Min_cycle;Max_cycle;Signal;HPM_P1;HPM_P2
2022/11/08 00:02:25;;;;;;;1999.90;999.90;;;;;;;10.84;100.00;100561.59;5070397;23;20049;-74
2022/11/08 00:04:50;;;;;;;1999.90;999.90;;;;;;;10.81;100.00;100555.47;5004712;28;20038;-74
2022/11/08 00:15:28;;;;;;;1999.90;999.90;;;;;;;10.36;100.00;100554.88;5005045;28;20042;-73
2022/11/08 00:17:55;;;;;;;1999.90;999.90;;;;;;;10.24;100.00;100550.47;5008916;28;20101;-74
2022/11/08 00:20:20;;;;;;;1999.90;999.90;;;;;;;10.15;100.00;100547.91;5006559;28;20107;-74
2022/11/08 00:22:46;;;;;;;1999.90;999.90;;;;;;;10.06;100.00;100551.41;5016897;28;20042;-73
2022/11/08 00:25:11;;;;;;;1999.90;999.90;;;;;;;9.97;100.00;100552.34;5003285;28;20046;-74
2022/11/08 00:27:36;;;;;;;1999.90;999.90;;;;;;;9.92;100.00;100559.38;5005381;28;20044;-74
2022/11/08 00:30:02;;;;;;;1999.90;999.90;;;;;;;9.87;100.00;100558.53;5004299;28;20046;-74
2022/11/08 00:32:28;;;;;;;1999.90;999.90;;;;;;;9.78;100.00;100553.28;5015299;28;20030;-74
2022/11/08 00:34:53;;;;;;;1999.90;999.90;;;;;;;9.73;100.00;100552.44;5003751;28;20041;-74
2022/11/08 00:37:20;;;;;;;1999.90;999.90;;;;;;;9.65;100.00;100558.59;5015183;28;20045;-73
2022/11/08 00:39:46;;;;;;;1999.90;999.90;;;;;;;9.58;100.00;100554.19;5009962;28;20463;-74
2022/11/08 00:42:11;;;;;;;1999.90;999.90;;;;;;;9.51;100.00;100568.28;5009294;28;20074;-74
2022/11/08 00:44:37;;;;;;;1999.90;999.90;;;;;;;9.47;100.00;100555.09;5014939;28;20085;-73
2022/11/08 00:47:03;;;;;;;1999.90;999.90;;;;;;;9.45;100.00;100555.09;5009464;28;20096;-74
2022/11/08 00:49:29;;;;;;;1999.90;999.90;;;;;;;9.43;100.00;100568.28;5009355;28;20451;-73
2022/11/08 00:51:54;;;;;;;1999.90;999.90;;;;;;;9.42;100.00;100561.25;5014409;28;20029;-73
2022/11/08 00:54:20;;;;;;;1999.90;999.90;;;;;;;9.41;100.00;100563.91;5008055;28;20085;-74
2022/11/08 00:56:46;;;;;;;1999.90;999.90;;;;;;;9.37;100.00;100563.00;5004955;28;20038;-73
2022/11/08 00:59:13;;;;;;;1999.90;999.90;;;;;;;9.33;100.00;100561.25;5010487;28;20468;-74
2022/11/08 01:01:39;;;;;;;1999.90;999.90;;;;;;;9.30;100.00;100553.38;5007238;28;20046;-73
2022/11/08 01:04:05;;;;;;;1999.90;999.90;;;;;;;9.27;100.00;100552.47;5005075;28;20038;-73
2022/11/08 01:06:30;;;;;;;1999.90;999.90;;;;;;;9.20;100.00;100555.13;5002110;28;20042;-73
2022/11/08 01:08:56;;;;;;;1999.90;999.90;;;;;;;9.17;100.00;100547.22;5005485;28;20533;-74
2022/11/08 01:11:24;;;;;;;1999.90;999.90;;;;;;;9.14;100.00;100544.59;5010712;28;20133;-74
2022/11/08 01:13:50;;;;;;;1999.90;999.90;;;;;;;9.10;100.00;100541.97;5005247;28;20034;-73
2022/11/08 01:16:22;;;;;;;1999.90;999.90;;;;;;;9.07;100.00;100552.50;5004299;28;20128;-73
2022/11/08 01:18:49;;;;;;;1999.90;999.90;;;;;;;9.02;100.00;100546.34;5002099;28;20043;-73
2022/11/08 01:21:16;;;;;;;1999.90;999.90;;;;;;;8.99;100.00;100541.97;5004594;28;20041;-74
2022/11/08 01:23:42;;;;;;;1999.90;999.90;;;;;;;8.96;100.00;100544.56;5003560;28;20038;-74
2022/11/08 01:26:11;;;;;;;1999.90;999.90;;;;;;;8.95;100.00;100540.19;5007361;28;20045;-74
2022/11/08 01:28:37;;;;;;;1999.90;999.90;;;;;;;8.92;100.00;100543.69;5002050;28;20030;-74
2022/11/08 01:31:11;;;;;;;1999.90;999.90;;;;;;;8.98;100.00;100532.28;5003932;28;20048;-73
2022/11/08 01:33:37;;;;;;;1999.90;999.90;;;;;;;8.99;100.00;100536.69;5003720;28;20038;-74
2022/11/08 01:36:07;;;;;;;1999.90;999.90;;;;;;;9.01;100.00;100542.81;5002188;28;20073;-73
2022/11/08 01:38:33;;;;;;;1999.90;999.90;;;;;;;9.01;100.00;100537.56;5007238;28;20659;-74
2022/11/08 01:40:58;;;;;;;1999.90;999.90;;;;;;;9.02;100.00;100539.31;5009456;28;20046;-73
2022/11/08 01:43:24;;;;;;;1999.90;999.90;;;;;;;9.04;100.00;100541.94;5007402;28;20068;-74
2022/11/08 01:46:11;;;;;;;1999.90;999.90;;;;;;;9.07;100.00;100537.56;5003066;28;20039;-73
2022/11/08 01:48:39;;;;;;;1999.90;999.90;;;;;;;9.07;100.00;100537.56;5003153;28;20465;-74
2022/11/08 01:51:07;;;;;;;1999.90;999.90;;;;;;;9.09;100.00;100541.09;5002444;28;20038;-74
2022/11/08 01:53:33;;;;;;;1999.90;999.90;;;;;;;9.11;100.00;100533.16;5004659;28;20076;-73
2022/11/08 01:55:59;;;;;;;1999.90;999.90;;;;;;;9.08;100.00;100539.31;5006648;28;20065;-74
2022/11/08 01:58:29;;;;;;;1999.90;999.90;;;;;;;9.04;100.00;100537.56;5002101;28;20038;-74
2022/11/08 02:00:56;;;;;;;1999.90;999.90;;;;;;;8.96;100.00;100528.78;5002613;28;20038;-74
2022/11/08 02:03:22;;;;;;;1999.90;999.90;;;;;;;8.92;100.00;100532.28;5004043;28;20416;-74
2022/11/08 02:05:47;;;;;;;1999.90;999.90;;;;;;;8.86;100.00;100538.44;5001060;28;20038;-74
2022/11/08 02:08:35;;;;;;;1999.90;999.90;;;;;;;8.81;100.00;100534.06;5004246;28;20053;-74
2022/11/08 02:11:01;;;;;;;1999.90;999.90;;;;;;;8.77;100.00;100523.50;5011073;28;20034;-74
2022/11/08 02:13:28;;;;;;;1999.90;999.90;;;;;;;8.76;100.00;100521.75;5000814;28;20042;-73
2022/11/08 02:15:54;;;;;;;1999.90;999.90;;;;;;;8.74;100.00;100530.53;5002656;28;20622;-73
2022/11/08 02:18:22;;;;;;;1999.90;999.90;;;;;;;8.65;100.00;100523.50;5003163;28;20136;-73
2022/11/08 02:21:07;;;;;;;1999.90;999.90;;;;;;;8.63;100.00;100525.25;5001277;28;20519;-74
2022/11/08 02:23:53;;;;;;;1999.90;999.90;;;;;;;8.54;100.00;100519.94;5003302;28;20042;-73
2022/11/08 02:26:23;;;;;;;1999.90;999.90;;;;;;;8.45;100.00;100514.69;5006628;28;20038;-73
2022/11/08 02:28:49;;;;;;;1999.90;999.90;;;;;;;8.39;100.00;100514.66;5010927;28;20516;-73
2022/11/08 02:31:16;;;;;;;1999.90;999.90;;;;;;;8.37;100.00;100516.38;5004982;28;20030;-73
2022/11/08 02:33:43;;;;;;;1999.90;999.90;;;;;;;8.25;100.00;100520.75;5003937;28;20555;-74
2022/11/08 02:36:13;;;;;;;1999.90;999.90;;;;;;;8.15;100.00;100518.97;5001897;28;20145;-73
2022/11/08 02:38:43;;;;;;;1999.90;999.90;;;;;;;8.10;100.00;100518.94;5001545;28;20540;-74
2022/11/08 02:41:09;;;;;;;1999.90;999.90;;;;;;;8.09;100.00;100514.53;5005850;28;20200;-73
2022/11/08 02:43:34;;;;;;;1999.90;999.90;;;;;;;8.16;100.00;100511.94;5002909;28;20124;-73
2022/11/08 02:46:00;;;;;;;1999.90;999.90;;;;;;;8.16;100.00;100512.81;5001892;28;20183;-74
2022/11/08 02:48:26;;;;;;;1999.90;999.90;;;;;;;8.12;100.00;100522.47;5001580;28;20142;-74
2022/11/08 02:50:52;;;;;;;1999.90;999.90;;;;;;;8.09;100.00;100530.31;5003356;28;20045;-74
2022/11/08 02:53:17;;;;;;;1999.90;999.90;;;;;;;8.07;100.00;100531.19;5000385;28;20034;-74
2022/11/08 02:55:43;;;;;;;1999.90;999.90;;;;;;;7.95;100.00;100534.63;5005248;28;20038;-73
2022/11/08 02:58:08;;;;;;;1999.90;999.90;;;;;;;7.85;100.00;100536.34;5002764;28;20042;-74
2022/11/08 03:00:34;;;;;;;1999.90;999.90;;;;;;;7.82;100.00;100533.69;5001839;28;20565;-74
2022/11/08 03:02:59;;;;;;;1999.90;999.90;;;;;;;7.84;100.00;100531.97;5001348;28;20038;-74
2022/11/08 03:05:26;;;;;;;1999.90;999.90;;;;;;;7.92;100.00;100529.38;5002553;28;20042;-74
2022/11/08 03:07:52;;;;;;;1999.90;999.90;;;;;;;8.01;100.00;100531.16;5010092;28;20141;-74
2022/11/08 03:10:18;;;;;;;1999.90;999.90;;;;;;;8.05;100.00;100531.19;5007237;28;20049;-74
2022/11/08 03:12:43;;;;;;;1999.90;999.90;;;;;;;8.03;100.00;100532.03;5004235;28;20041;-73
2022/11/08 03:15:10;;;;;;;1999.90;999.90;;;;;;;8.10;100.00;100529.44;5001888;28;20046;-74
2022/11/08 03:17:36;;;;;;;1999.90;999.90;;;;;;;8.13;100.00;100529.47;5001823;28;20038;-71
2022/11/08 03:20:02;;;;;;;1999.90;999.90;;;;;;;8.10;100.00;100528.59;5000522;28;20042;-71
2022/11/08 03:22:28;;;;;;;1999.90;999.90;;;;;;;8.15;100.00;100537.38;5003215;28;20073;-74
2022/11/08 03:24:53;;;;;;;1999.90;999.90;;;;;;;8.13;100.00;100533.84;5000048;28;20034;-74
2022/11/08 03:27:18;;;;;;;1999.90;999.90;;;;;;;8.06;100.00;100526.78;5002128;28;20048;-74
2022/11/08 03:29:45;;;;;;;1999.90;999.90;;;;;;;7.99;100.00;100530.25;5002997;28;20128;-73
2022/11/08 03:32:10;;;;;;;1999.90;999.90;;;;;;;7.96;100.00;100531.13;5007426;28;20484;-74
2022/11/08 03:34:36;;;;;;;1999.90;999.90;;;;;;;7.90;100.00;100542.50;5000497;28;20035;-73
2022/11/08 03:37:03;;;;;;;1999.90;999.90;;;;;;;7.89;100.00;100530.25;5002843;28;20480;-74
2022/11/08 03:39:28;;;;;;;1999.90;999.90;;;;;;;7.88;100.00;100544.22;5000053;28;20038;-74
2022/11/08 03:41:53;;;;;;;1999.90;999.90;;;;;;;7.80;100.00;100530.19;5007275;28;20487;-74
2022/11/08 03:44:19;;;;;;;1999.90;999.90;;;;;;;7.75;100.00;100525.78;5003083;28;20038;-73
2022/11/08 03:46:44;;;;;;;1999.90;999.90;;;;;;;7.72;100.00;100531.88;5005201;28;20041;-74
2022/11/08 03:49:09;;;;;;;1999.90;999.90;;;;;;;7.70;100.00;100533.63;5000534;28;20030;-74
2022/11/08 03:51:34;;;;;;;1999.90;999.90;;;;;;;7.71;100.00;100535.41;5003604;28;20033;-74
2022/11/08 03:54:00;;;;;;;1999.90;999.90;;;;;;;7.71;100.00;100531.91;5003651;28;20034;-73
2022/11/08 03:56:25;;;;;;;1999.90;999.90;;;;;;;7.65;100.00;100530.09;5001001;28;20034;-74
2022/11/08 03:58:50;;;;;;;1999.90;999.90;;;;;;;7.59;100.00;100541.44;5000789;28;20050;-74
2022/11/08 04:01:16;;;;;;;1999.90;999.90;;;;;;;7.51;100.00;100537.91;5001365;28;20034;-74
2022/11/08 04:03:41;;;;;;;1999.90;999.90;;;;;;;7.41;100.00;100542.22;5001658;28;20050;-73
2022/11/08 04:06:07;;;;;;;1999.90;999.90;;;;;;;7.33;100.00;100548.28;5004587;28;20045;-74
2022/11/08 04:08:32;;;;;;;1999.90;999.90;;;;;;;7.23;100.00;100544.69;5002864;28;20038;-73
2022/11/08 04:15:13;;;;;;;1999.90;999.90;;;;;;;7.14;100.00;100548.13;5002049;28;20057;-74
2022/11/08 04:16:30;;;;;;;1999.90;999.90;;;;;;;6.99;100.00;100548.00;4999568;28;20137;-73
2022/11/08 04:21:43;;;;;;;1999.90;999.90;;;;;;;6.90;100.00;100547.94;5002467;28;20072;-74
2022/11/08 04:24:08;;;;;;;1999.90;999.90;;;;;;;6.86;100.00;100540.88;5002882;28;20095;-74
2022/11/08 04:26:33;;;;;;;1999.90;999.90;;;;;;;6.82;100.00;100534.75;4999970;28;20049;-74
2022/11/08 04:29:01;;;;;;;1999.90;999.90;;;;;;;6.81;100.00;100535.59;5001491;28;20038;-73
2022/11/08 04:31:27;;;;;;;1999.90;999.90;;;;;;;6.79;100.00;100532.09;5001674;28;20038;-73
2022/11/08 04:33:52;;;;;;;1999.90;999.90;;;;;;;6.74;100.00;100529.44;4999768;28;20042;-73
2022/11/08 04:36:18;;;;;;;1999.90;999.90;;;;;;;6.71;100.00;100518.03;5003805;28;20068;-73
2022/11/08 04:38:47;;;;;;;1999.90;999.90;;;;;;;6.66;100.00;100522.34;5003134;28;20146;-74
2022/11/08 04:41:14;;;;;;;1999.90;999.90;;;;;;;6.64;100.00;100513.59;5008712;28;20038;-74
2022/11/08 04:43:39;;;;;;;1999.90;999.90;;;;;;;6.56;100.00;100522.25;5007768;28;20510;-74
2022/11/08 04:46:07;;;;;;;1999.90;999.90;;;;;;;6.49;100.00;100525.66;5007177;28;20113;-74
2022/11/08 04:48:33;;;;;;;1999.90;999.90;;;;;;;6.49;100.00;100530.03;5005868;28;20049;-74
2022/11/08 04:51:07;;;;;;;1999.90;999.90;;;;;;;6.51;100.00;100523.94;5003066;28;20034;-73
2022/11/08 04:53:33;;;;;;;1999.90;999.90;;;;;;;6.50;100.00;100524.81;5007139;28;20038;-73
2022/11/08 04:56:04;;;;;;;1999.90;999.90;;;;;;;6.48;100.00;100523.06;5005977;28;20054;-74
2022/11/08 04:58:38;;;;;;;1999.90;999.90;;;;;;;6.41;100.00;100518.59;5004801;28;20042;-73
2022/11/08 05:01:04;;;;;;;1999.90;999.90;;;;;;;6.25;100.00;100520.16;5009193;28;20147;-73
2022/11/08 05:03:30;;;;;;;1999.90;999.90;;;;;;;6.12;100.00;100525.25;5009982;28;20154;-73
2022/11/08 05:05:59;;;;;;;1999.90;999.90;;;;;;;6.06;100.00;100519.09;5011627;28;20042;-73
2022/11/08 05:08:25;;;;;;;1999.90;999.90;;;;;;;6.03;100.00;100519.06;5010353;28;20069;-74
2022/11/08 05:10:50;;;;;;;1999.90;999.90;;;;;;;6.02;100.00;100520.78;5009038;28;20065;-74
2022/11/08 05:13:15;;;;;;;1999.90;999.90;;;;;;;6.04;100.00;100520.81;5008474;28;20042;-74
2022/11/08 05:15:40;;;;;;;1999.90;999.90;;;;;;;5.99;100.00;100520.75;5004269;28;20037;-74
2022/11/08 05:18:06;;;;;;;1999.90;999.90;;;;;;;5.98;100.00;100521.63;5006459;28;20049;-74
2022/11/08 05:23:24;;;;;;;1999.90;999.90;;;;;;;6.07;100.00;100521.72;5008052;28;20034;-73
2022/11/08 05:25:53;;;;;;;1999.90;999.90;;;;;;;6.12;100.00;100516.53;5002464;28;20424;-73
2022/11/08 05:28:19;;;;;;;1999.90;999.90;;;;;;;6.10;100.00;100523.47;5003402;28;20121;-74
2022/11/08 05:30:50;;;;;;;1999.90;999.90;;;;;;;6.03;100.00;100521.69;5008656;28;20380;-74
2022/11/08 05:33:16;;;;;;;1999.90;999.90;;;;;;;5.99;100.00;100522.47;5004546;28;20062;-73
2022/11/08 05:35:41;;;;;;;1999.90;999.90;;;;;;;5.99;100.00;100519.88;5008599;28;20076;-74
2022/11/08 05:38:06;;;;;;;1999.90;999.90;;;;;;;6.01;100.00;100529.50;5002802;28;20043;-74
2022/11/08 05:40:33;;;;;;;1999.90;999.90;;;;;;;5.97;100.00;100525.06;5009049;28;20025;-74
2022/11/08 05:42:58;;;;;;;1999.90;999.90;;;;;;;5.91;100.00;100524.97;5002326;28;20034;-73
2022/11/08 05:45:23;;;;;;;1999.90;999.90;;;;;;;5.90;100.00;100524.09;4999688;28;20038;-74
2022/11/08 05:47:49;;;;;;;1999.90;999.90;;;;;;;5.92;100.00;100524.09;5003610;28;20030;-74
2022/11/08 05:50:14;;;;;;;1999.90;999.90;;;;;;;5.91;100.00;100530.22;5006575;28;20051;-73
2022/11/08 05:52:39;;;;;;;1999.90;999.90;;;;;;;5.89;100.00;100526.69;5004210;28;20076;-74
2022/11/08 05:55:05;;;;;;;1999.90;999.90;;;;;;;5.89;100.00;100531.94;5013248;28;20029;-73
2022/11/08 05:57:30;;;;;;;1999.90;999.90;;;;;;;5.86;100.00;100539.75;5008651;28;20045;-74
2022/11/08 05:59:56;;;;;;;1999.90;999.90;;;;;;;5.83;100.00;100531.84;5009975;28;20053;-73
2022/11/08 06:02:21;;;;;;;1999.90;999.90;;;;;;;5.78;100.00;100533.53;5011941;28;20080;-73
2022/11/08 06:04:47;;;;;;;1999.90;999.90;;;;;;;5.76;100.00;100536.13;5007879;28;20037;-73
2022/11/08 06:07:13;;;;;;;1999.90;999.90;;;;;;;5.77;100.00;100531.78;5032176;23;20475;-73
2022/11/08 06:09:39;;;;;;;1999.90;999.90;;;;;;;5.79;100.00;100532.66;5022952;28;20117;-73
2022/11/08 06:12:04;;;;;;;1999.90;999.90;;;;;;;5.79;100.00;100535.28;5023454;28;20061;-73
2022/11/08 06:14:29;;;;;;;1999.90;999.90;;;;;;;5.72;100.00;100536.97;5019090;28;20041;-74
2022/11/08 06:16:55;;;;;;;1999.90;999.90;;;;;;;5.60;100.00;100535.03;5020631;28;20034;-73
2022/11/08 06:19:20;;;;;;;1999.90;999.90;;;;;;;5.58;100.00;100539.38;5024194;28;20419;-74
2022/11/08 06:21:45;;;;;;;1999.90;999.90;;;;;;;5.56;100.00;100535.00;5015621;28;20465;-74
2022/11/08 06:24:11;;;;;;;1999.90;999.90;;;;;;;5.53;100.00;100527.97;5018210;28;20396;-73
2022/11/08 06:26:36;;;;;;;1999.90;999.90;;;;;;;5.47;100.00;100533.97;5020748;28;20088;-73
2022/11/08 06:29:01;;;;;;;1999.90;999.90;;;;;;;5.48;100.00;100532.25;5021736;28;20057;-73
2022/11/08 06:31:27;;;;;;;1999.90;999.90;;;;;;;5.47;100.00;100527.88;5021614;28;20104;-73
2022/11/08 06:33:52;;;;;;;1999.90;999.90;;;;;;;5.49;100.00;100528.78;5022346;28;20041;-73
2022/11/08 06:36:19;;;;;;;1999.90;999.90;;;;;;;5.49;100.00;100529.66;5016236;28;20038;-73
2022/11/08 06:38:45;;;;;;;1999.90;999.90;;;;;;;5.46;100.00;100521.75;5022753;28;20125;-73
2022/11/08 06:41:17;;;;;;;1999.90;999.90;;;;;;;5.49;100.00;100531.38;5023250;28;20041;-73
2022/11/08 06:43:42;;;;;;;1999.90;999.90;;;;;;;5.53;100.00;100521.84;5020710;28;20069;-73
2022/11/08 06:46:08;;;;;;;1999.90;999.90;;;;;;;5.56;100.00;100521.91;5023137;28;20068;-73
2022/11/08 06:48:33;;;;;;;1999.90;999.90;;;;;;;5.57;100.00;100527.13;5020321;28;20034;-73
2022/11/08 06:50:58;;;;;;;1999.90;999.90;;;;;;;5.62;100.00;100533.31;5022665;28;20029;-73
2022/11/08 06:53:24;;;;;;;1999.90;999.90;;;;;;;5.70;100.00;100530.81;5021623;28;20084;-73
2022/11/08 06:55:49;;;;;;;1999.90;999.90;;;;;;;5.76;100.00;100535.25;5021015;28;20034;-73
2022/11/08 06:58:14;;;;;;;1999.90;999.90;;;;;;;5.82;100.00;100533.59;5021942;28;20064;-73
2022/11/08 07:00:40;;;;;;;1999.90;999.90;;;;;;;5.91;100.00;100538.06;5020116;28;20050;-73
2022/11/08 07:03:05;;;;;;;1999.90;999.90;;;;;;;5.96;100.00;100528.56;5021669;28;20048;-73
2022/11/08 07:05:33;;;;;;;1999.90;999.90;;;;;;;6.02;100.00;100530.38;5022641;28;20041;-74
2022/11/08 07:07:59;;;;;;;1999.90;999.90;;;;;;;6.10;100.00;100532.25;5022445;28;20400;-74
2022/11/08 07:10:27;;;;;;;1999.90;999.90;;;;;;;6.19;100.00;100535.84;5017420;28;20036;-73
2022/11/08 07:13:05;;;;;;;1999.90;999.90;;;;;;;6.27;100.00;100528.94;5024668;28;20033;-73
2022/11/08 07:15:32;;;;;;;1999.90;999.90;;;;;;;6.35;100.00;100533.41;5021126;28;20523;-73
2022/11/08 07:18:02;;;;;;;1999.90;999.90;;;;;;;6.36;100.00;100531.66;5023282;28;20041;-74
2022/11/08 07:20:28;;;;;;;1999.90;999.90;;;;;;;6.42;100.00;100534.34;5020879;28;20030;-74
2022/11/08 07:22:54;;;;;;;1999.90;999.90;;;;;;;6.45;100.00;100539.63;5022525;28;20029;-74
2022/11/08 07:25:19;;;;;;;1999.90;999.90;;;;;;;6.53;100.00;100532.72;5020416;28;20560;-73
2022/11/08 07:27:45;;;;;;;1999.90;999.90;;;;;;;6.64;100.00;100539.81;5021152;28;20124;-74
2022/11/08 07:30:10;;;;;;;1999.90;999.90;;;;;;;6.77;100.00;100539.06;5021542;28;20068;-73
2022/11/08 07:32:36;;;;;;;1999.90;999.90;;;;;;;6.94;100.00;100537.50;5020080;28;20052;-73
2022/11/08 07:35:01;;;;;;;1999.90;999.90;;;;;;;7.07;100.00;100537.56;5022814;28;20072;-74
2022/11/08 07:37:26;;;;;;;1999.90;999.90;;;;;;;7.15;100.00;100533.25;5024680;28;20116;-74
2022/11/08 07:39:52;;;;;;;1999.90;999.90;;;;;;;7.21;100.00;100536.81;5020243;28;20404;-74
2022/11/08 07:42:17;;;;;;;1999.90;999.90;;;;;;;7.32;100.00;100536.03;5023528;28;20479;-74
2022/11/08 07:44:44;;;;;;;1999.90;999.90;;;;;;;7.45;100.00;100532.63;5019498;28;20037;-73
2022/11/08 07:47:09;;;;;;;1999.90;999.90;;;;;;;7.56;100.00;100525.66;5021682;28;20025;-74
2022/11/08 07:49:35;;;;;;;1999.90;999.90;;;;;;;7.68;100.00;100528.38;5018664;28;20022;-74
2022/11/08 07:52:00;;;;;;;1999.90;999.90;;;;;;;7.82;100.00;100523.19;5019411;28;20389;-74
2022/11/08 07:54:26;;;;;;;1999.90;999.90;;;;;;;8.01;100.00;100523.28;5022350;28;20067;-74
2022/11/08 07:56:51;;;;;;;1999.90;999.90;;;;;;;8.26;100.00;100519.00;5019938;28;20512;-74
2022/11/08 07:59:16;;;;;;;1999.90;999.90;;;;;;;8.47;100.00;100519.06;5020610;28;20457;-73
2022/11/08 08:01:41;;;;;;;1999.90;999.90;;;;;;;8.67;100.00;100515.59;5019668;28;20052;-73
2022/11/08 08:04:08;;;;;;;1999.90;999.90;;;;;;;8.87;100.00;100518.25;5018779;28;20026;-74
2022/11/08 08:06:34;;;;;;;1999.90;999.90;;;;;;;9.04;100.00;100521.78;5023677;28;20423;-74
2022/11/08 08:08:59;;;;;;;1999.90;999.90;;;;;;;9.16;100.00;100521.75;5022444;28;20029;-74
2022/11/08 08:11:24;;;;;;;1999.90;999.90;;;;;;;9.30;100.00;100521.78;5024433;28;20515;-74
2022/11/08 08:13:50;;;;;;;1999.90;999.90;;;;;;;9.46;100.00;100521.72;5024462;28;20040;-74
2022/11/08 08:16:15;;;;;;;1999.90;999.90;;;;;;;9.61;100.00;100522.56;5024067;28;20034;-74
2022/11/08 08:18:40;;;;;;;1999.90;999.90;;;;;;;9.77;100.00;100517.25;5022577;28;20157;-74
2022/11/08 08:21:06;;;;;;;1999.90;999.90;;;;;;;9.91;100.00;100514.59;5026323;28;20033;-74
2022/11/08 08:23:31;;;;;;;1999.90;999.90;;;;;;;10.02;100.00;100515.41;5022968;28;20057;-74
2022/11/08 08:25:56;;;;;;;1999.90;999.90;;;;;;;10.14;100.00;100519.75;5025517;28;20049;-74
2022/11/08 08:28:22;;;;;;;1999.90;999.90;;;;;;;10.29;100.00;100514.44;5023682;28;20038;-74
2022/11/08 08:30:47;;;;;;;1999.90;999.90;;;;;;;10.39;100.00;100510.88;5024513;28;20049;-74
2022/11/08 08:33:16;;;;;;;1999.90;999.90;;;;;;;10.51;100.00;100508.16;5026022;28;20041;-74
2022/11/08 08:35:44;;;;;;;1999.90;999.90;;;;;;;10.60;100.00;100506.34;5021984;28;20594;-74
2022/11/08 08:38:11;;;;;;;1999.90;999.90;;;;;;;10.69;100.00;100504.53;5020575;28;20437;-74
2022/11/08 08:40:36;;;;;;;1999.90;999.90;;;;;;;10.82;100.00;100502.69;5023742;28;20038;-74
2022/11/08 08:43:03;;;;;;;1999.90;999.90;;;;;;;10.94;100.00;100505.19;5023973;28;20117;-74
2022/11/08 08:45:32;;;;;;;1999.90;999.90;;;;;;;11.06;100.00;100493.69;5024836;28;20049;-74
2022/11/08 08:47:58;;;;;;;1999.90;999.90;;;;;;;11.16;100.00;100499.72;5022291;28;20088;-74
2022/11/08 08:50:26;;;;;;;1999.90;999.90;;;;;;;11.22;100.00;100486.50;5025358;28;20052;-74
2022/11/08 08:52:55;;;;;;;1999.90;999.90;;;;;;;11.30;100.00;100491.69;5023780;28;20073;-74
2022/11/08 08:55:20;;;;;;;1999.90;999.90;;;;;;;11.34;100.00;100494.31;5023053;28;20619;-74
2022/11/08 08:57:46;;;;;;;1999.90;999.90;;;;;;;11.41;100.00;100487.19;5024732;28;20152;-74
2022/11/08 09:00:14;;;;;;;1999.90;999.90;;;;;;;11.50;100.00;100488.84;5018705;28;20409;-74
2022/11/08 09:02:40;;;;;;;1999.90;999.90;;;;;;;11.58;100.00;100479.06;5021715;28;20033;-74
2022/11/08 09:05:05;;;;;;;1999.90;999.90;;;;;;;11.65;100.00;100475.47;5021507;28;20120;-74
2022/11/08 09:07:31;;;;;;;1999.90;999.90;;;;;;;11.74;100.00;100472.72;5023459;28;20408;-74
2022/11/08 09:09:56;;;;;;;1999.90;999.90;;;;;;;11.83;100.00;100483.16;5023561;28;20048;-74
2022/11/08 09:12:22;;;;;;;1999.90;999.90;;;;;;;11.94;100.00;100476.91;5025802;28;20034;-74
2022/11/08 09:14:47;;;;;;;1999.90;999.90;;;;;;;11.94;100.00;100471.63;5021973;28;20049;-74
2022/11/08 09:17:12;;;;;;;1999.90;999.90;;;;;;;12.08;100.00;100469.69;5024333;28;20124;-74
2022/11/08 09:19:38;;;;;;;1999.90;999.90;;;;;;;12.19;100.00;100475.69;5022989;28;20093;-74
2022/11/08 09:22:03;;;;;;;1999.90;999.90;;;;;;;12.27;100.00;100473.81;5023999;28;20038;-74
2022/11/08 09:24:28;;;;;;;1999.90;999.90;;;;;;;12.42;100.00;100480.69;5021813;28;20044;-74
2022/11/08 09:26:53;;;;;;;1999.90;999.90;;;;;;;12.56;99.87;100480.47;5021750;28;20046;-74
2022/11/08 09:29:19;;;;;;;1999.90;999.90;;;;;;;12.66;99.01;100482.06;5024918;28;20056;-74
2022/11/08 09:31:44;;;;;;;1999.90;999.90;;;;;;;12.75;98.38;100481.03;5017852;28;20038;-74
2022/11/08 09:34:09;;;;;;;1999.90;999.90;;;;;;;12.84;97.75;100480.03;5024295;28;20033;-74
2022/11/08 09:36:35;;;;;;;1999.90;999.90;;;;;;;12.88;96.56;100477.28;5022405;28;20034;-74
2022/11/08 09:39:00;;;;;;;1999.90;999.90;;;;;;;12.88;95.31;100472.00;5022965;28;20033;-74
2022/11/08 09:41:38;;;;;;;1999.90;999.90;;;;;;;12.89;94.27;100472.88;5023231;28;20048;-74
2022/11/08 09:44:20;;;;;;;1999.90;999.90;;;;;;;13.03;94.96;100468.22;5018276;28;20063;-74
2022/11/08 09:46:55;;;;;;;1999.90;999.90;;;;;;;13.16;95.57;100467.09;5024261;28;20037;-74
2022/11/08 09:49:28;;;;;;;1999.90;999.90;;;;;;;13.36;95.93;100468.53;5022679;28;20032;-74
2022/11/08 09:51:53;;;;;;;1999.90;999.90;;;;;;;13.47;94.26;100466.59;5024529;28;20041;-74
2022/11/08 09:54:46;;;;;;;1999.90;999.90;;;;;;;13.55;92.87;100466.44;5016502;28;20073;-74
2022/11/08 09:57:22;;;;;;;1999.90;999.90;;;;;;;13.61;91.34;100460.13;5018252;28;20054;-74
2022/11/08 09:59:54;;;;;;;1999.90;999.90;;;;;;;13.72;92.05;100452.84;5021933;28;20099;-74
2022/11/08 10:02:23;;;;;;;1999.90;999.90;;;;;;;13.81;91.26;100450.88;5012673;28;20038;-74
2022/11/08 10:05:08;;;;;;;1999.90;999.90;;;;;;;13.91;89.41;100446.25;5022972;28;20091;-74
2022/11/08 10:07:49;;;;;;;1999.90;999.90;;;;;;;14.01;89.29;100447.78;5021150;28;20072;-74
2022/11/08 10:10:36;;;;;;;1999.90;999.90;;;;;;;14.12;87.84;100442.28;5024429;28;20034;-74
2022/11/08 10:13:25;;;;;;;1999.90;999.90;;;;;;;14.12;86.82;100449.31;5023099;28;20065;-74
2022/11/08 10:16:32;;;;;;;1999.90;999.90;;;;;;;14.20;86.82;100450.94;5020684;28;20045;-74
2022/11/08 10:19:08;;;;;;;1999.90;999.90;;;;;;;14.23;85.99;100442.88;5015887;28;20071;-74
2022/11/08 10:21:54;;;;;;;1999.90;999.90;;;;;;;14.31;84.90;100440.06;5023718;28;20033;-74
2022/11/08 10:24:38;;;;;;;1999.90;999.90;;;;;;;14.53;84.37;100444.91;5023744;28;20049;-74
2022/11/08 10:27:13;;;;;;;1999.90;999.90;;;;;;;14.75;84.78;100434.63;5019681;28;20037;-74
2022/11/08 10:29:45;;;;;;;1999.90;999.90;;;;;;;14.87;83.05;100431.66;5014713;28;20108;-74
2022/11/08 10:32:19;;;;;;;1999.90;999.90;;;;;;;15.07;83.10;100432.03;5021692;28;20069;-74
2022/11/08 10:35:05;;;;;;;1999.90;999.90;;;;;;;15.10;81.34;100429.28;5019370;28;20495;-74
2022/11/08 10:37:32;;;;;;;1999.90;999.90;;;;;;;15.04;80.74;100421.47;5020048;28;20037;-74
2022/11/08 10:40:04;;;;;;;1999.90;999.90;;;;;;;15.14;82.00;100416.78;5020225;28;20095;-74
2022/11/08 10:42:38;;;;;;;1999.90;999.90;;;;;;;15.27;80.66;100418.22;5020146;28;20033;-74
2022/11/08 10:45:03;;;;;;;1999.90;999.90;;;;;;;15.27;79.88;100410.22;5022362;28;20041;-74
2022/11/08 10:47:32;;;;;;;1999.90;999.90;;;;;;;15.33;78.77;100410.06;5025764;28;20105;-74
2022/11/08 10:49:57;;;;;;;1999.90;999.90;;;;;;;15.43;78.90;100412.44;5021817;28;20428;-74
2022/11/08 10:52:43;;;;;;;1999.90;999.90;;;;;;;15.51;78.14;100405.13;5023115;28;20148;-74
2022/11/08 10:55:37;;;;;;;1999.90;999.90;;;;;;;15.55;78.40;100401.47;5020617;28;20060;-74
2022/11/08 10:58:03;;;;;;;1999.90;999.90;;;;;;;15.62;78.38;100399.50;5017328;28;20116;-74
2022/11/08 11:00:30;;;;;;;1999.90;999.90;;;;;;;15.71;77.21;100393.94;5021022;28;20044;-74
2022/11/08 11:03:14;;;;;;;1999.90;999.90;;;;;;;15.77;77.32;100389.31;5017871;28;20057;-74
2022/11/08 11:05:42;;;;;;;1999.90;999.90;;;;;;;15.88;77.73;100383.69;5020657;28;20033;-74